sensor_id;sensor_type;location;lat;lon;timestamp;temperature;humidity
20985;DHT22;10651;47.552;7.606;2022-12-29T00:01:08;8.40;99.90
20985;DHT22;10651;47.552;7.606;2022-12-29T00:03:34;8.40;99.90
20985;DHT22;10651;47.552;7.606;2022-12-29T00:05:59;8.40;99.90
20985;DHT22;10651;47.552;7.606;2022-12-29T00:08:26;8.40;99.90
20985;DHT22;10651;47.552;7.606;2022-12-29T00:11:19;8.40;99.90
20985;DHT22;10651;47.552;7.606;2022-12-29T00:13:45;8.50;99.90
20985;DHT22;10651;47.552;7.606;2022-12-29T00:16:31;8.50;99.90
20985;DHT22;10651;47.552;7.606;2022-12-29T00:18:57;8.40;99.90
20985;DHT22;10651;47.552;7.606;2022-12-29T00:21:24;8.50;99.90
20985;DHT22;10651;47.552;7.606;2022-12-29T00:24:19;8.40;99.90
20985;DHT22;10651;47.552;7.606;2022-12-29T00:29:48;8.40;99.90
20985;DHT22;10651;47.552;7.606;2022-12-29T00:32:33;8.50;99.90
20985;DHT22;10651;47.552;7.606;2022-12-29T00:35:31;8.60;99.90
20985;DHT22;10651;47.552;7.606;2022-12-29T00:38:04;8.50;99.90
20985;DHT22;10651;47.552;7.606;2022-12-29T00:40:49;8.50;99.90
20985;DHT22;10651;47.552;7.606;2022-12-29T00:43:33;8.40;99.90
20985;DHT22;10651;47.552;7.606;2022-12-29T00:46:18;8.40;99.90
20985;DHT22;10651;47.552;7.606;2022-12-29T00:48:43;8.50;99.90
20985;DHT22;10651;47.552;7.606;2022-12-29T00:51:27;8.50;99.90
20985;DHT22;10651;47.552;7.606;2022-12-29T00:53:53;8.50;99.90
20985;DHT22;10651;47.552;7.606;2022-12-29T05:46:38;11.60;99.90
20985;DHT22;10651;47.552;7.606;2022-12-29T05:49:04;11.70;99.90
20985;DHT22;10651;47.552;7.606;2022-12-29T05:51:30;11.90;99.90
20985;DHT22;10651;47.552;7.606;2022-12-29T05:53:56;11.90;99.90
20985;DHT22;10651;47.552;7.606;2022-12-29T05:56:21;12.00;99.90
20985;DHT22;10651;47.552;7.606;2022-12-29T05:58:47;12.10;99.90
20985;DHT22;10651;47.552;7.606;2022-12-29T06:01:13;12.10;99.90
20985;DHT22;10651;47.552;7.606;2022-12-29T06:03:38;12.10;99.90
20985;DHT22;10651;47.552;7.606;2022-12-29T06:06:04;12.20;99.90
20985;DHT22;10651;47.552;7.606;2022-12-29T06:08:30;12.30;99.90
20985;DHT22;10651;47.552;7.606;2022-12-29T06:10:56;12.30;99.90
20985;DHT22;10651;47.552;7.606;2022-12-29T06:13:21;12.30;99.90
20985;DHT22;10651;47.552;7.606;2022-12-29T06:15:51;12.20;99.90
20985;DHT22;10651;47.552;7.606;2022-12-29T06:18:16;12.20;99.90
20985;DHT22;10651;47.552;7.606;2022-12-29T06:20:42;12.30;99.90
20985;DHT22;10651;47.552;7.606;2022-12-29T06:23:08;12.30;99.90
20985;DHT22;10651;47.552;7.606;2022-12-29T06:25:34;12.30;99.90
20985;DHT22;10651;47.552;7.606;2022-12-29T06:28:02;12.30;99.90
20985;DHT22;10651;47.552;7.606;2022-12-29T06:30:28;12.30;99.90
20985;DHT22;10651;47.552;7.606;2022-12-29T06:32:53;12.40;99.90
20985;DHT22;10651;47.552;7.606;2022-12-29T06:35:20;12.40;99.90
20985;DHT22;10651;47.552;7.606;2022-12-29T06:37:47;12.40;99.90
20985;DHT22;10651;47.552;7.606;2022-12-29T06:40:13;12.40;99.90
20985;DHT22;10651;47.552;7.606;2022-12-29T06:42:39;12.30;99.90
20985;DHT22;10651;47.552;7.606;2022-12-29T06:45:05;12.30;99.90
20985;DHT22;10651;47.552;7.606;2022-12-29T06:47:33;12.20;99.90
20985;DHT22;10651;47.552;7.606;2022-12-29T06:49:59;12.80;99.90
20985;DHT22;10651;47.552;7.606;2022-12-29T06:52:25;12.70;99.90
20985;DHT22;10651;47.552;7.606;2022-12-29T06:54:50;12.70;99.90
20985;DHT22;10651;47.552;7.606;2022-12-29T06:57:16;12.60;99.90
20985;DHT22;10651;47.552;7.606;2022-12-29T06:59:42;12.50;99.90
20985;DHT22;10651;47.552;7.606;2022-12-29T07:02:10;12.60;99.90
20985;DHT22;10651;47.552;7.606;2022-12-29T07:04:36;12.50;99.90
20985;DHT22;10651;47.552;7.606;2022-12-29T07:07:02;12.60;99.90
20985;DHT22;10651;47.552;7.606;2022-12-29T07:09:28;12.60;99.90
20985;DHT22;10651;47.552;7.606;2022-12-29T07:11:53;12.60;99.90
20985;DHT22;10651;47.552;7.606;2022-12-29T07:14:19;12.70;99.90
20985;DHT22;10651;47.552;7.606;2022-12-29T07:16:45;12.70;99.90
20985;DHT22;10651;47.552;7.606;2022-12-29T07:19:10;12.70;99.90
20985;DHT22;10651;47.552;7.606;2022-12-29T07:21:36;12.70;99.90
20985;DHT22;10651;47.552;7.606;2022-12-29T07:24:02;12.70;99.90
20985;DHT22;10651;47.552;7.606;2022-12-29T07:26:27;12.70;99.90
20985;DHT22;10651;47.552;7.606;2022-12-29T07:28:53;12.70;99.90
20985;DHT22;10651;47.552;7.606;2022-12-29T07:31:22;12.80;99.90
20985;DHT22;10651;47.552;7.606;2022-12-29T07:33:48;12.80;99.90
20985;DHT22;10651;47.552;7.606;2022-12-29T07:36:14;12.90;99.90
20985;DHT22;10651;47.552;7.606;2022-12-29T07:38:41;12.90;99.90
20985;DHT22;10651;47.552;7.606;2022-12-29T07:41:07;12.90;99.90
20985;DHT22;10651;47.552;7.606;2022-12-29T07:43:33;12.90;99.90
20985;DHT22;10651;47.552;7.606;2022-12-29T07:45:59;12.90;99.90
20985;DHT22;10651;47.552;7.606;2022-12-29T07:48:24;12.90;99.90
20985;DHT22;10651;47.552;7.606;2022-12-29T07:50:50;12.90;99.90
20985;DHT22;10651;47.552;7.606;2022-12-29T07:53:17;12.80;99.90
20985;DHT22;10651;47.552;7.606;2022-12-29T07:55:42;12.80;99.90
20985;DHT22;10651;47.552;7.606;2022-12-29T07:58:08;12.90;99.90
20985;DHT22;10651;47.552;7.606;2022-12-29T08:00:34;12.90;99.90
20985;DHT22;10651;47.552;7.606;2022-12-29T08:02:59;12.90;99.90
20985;DHT22;10651;47.552;7.606;2022-12-29T08:05:25;13.00;99.90
20985;DHT22;10651;47.552;7.606;2022-12-29T08:07:51;13.00;99.90
20985;DHT22;10651;47.552;7.606;2022-12-29T08:10:17;13.10;99.90
20985;DHT22;10651;47.552;7.606;2022-12-29T08:12:43;13.10;99.90
20985;DHT22;10651;47.552;7.606;2022-12-29T08:15:10;13.20;99.90
20985;DHT22;10651;47.552;7.606;2022-12-29T08:17:36;13.20;99.90
20985;DHT22;10651;47.552;7.606;2022-12-29T08:20:03;13.30;99.90
20985;DHT22;10651;47.552;7.606;2022-12-29T08:22:29;13.30;99.90
20985;DHT22;10651;47.552;7.606;2022-12-29T08:24:54;13.30;99.90
20985;DHT22;10651;47.552;7.606;2022-12-29T08:27:20;13.40;99.90
20985;DHT22;10651;47.552;7.606;2022-12-29T08:29:46;13.40;99.90
20985;DHT22;10651;47.552;7.606;2022-12-29T08:32:12;13.50;99.90
20985;DHT22;10651;47.552;7.606;2022-12-29T08:34:37;13.50;99.90
20985;DHT22;10651;47.552;7.606;2022-12-29T08:37:03;13.50;99.90
20985;DHT22;10651;47.552;7.606;2022-12-29T08:39:29;13.60;99.90
20985;DHT22;10651;47.552;7.606;2022-12-29T08:41:55;13.60;99.90
20985;DHT22;10651;47.552;7.606;2022-12-29T08:44:21;13.60;99.90
20985;DHT22;10651;47.552;7.606;2022-12-29T08:46:46;13.60;99.90
20985;DHT22;10651;47.552;7.606;2022-12-29T08:49:12;13.60;99.90
20985;DHT22;10651;47.552;7.606;2022-12-29T08:51:38;13.60;99.90
20985;DHT22;10651;47.552;7.606;2022-12-29T08:54:04;13.60;99.90
20985;DHT22;10651;47.552;7.606;2022-12-29T08:56:30;13.70;99.90
20985;DHT22;10651;47.552;7.606;2022-12-29T08:58:55;13.80;99.90
20985;DHT22;10651;47.552;7.606;2022-12-29T09:01:21;13.90;99.90
20985;DHT22;10651;47.552;7.606;2022-12-29T09:03:47;14.00;99.90
20985;DHT22;10651;47.552;7.606;2022-12-29T09:06:14;14.10;99.90
20985;DHT22;10651;47.552;7.606;2022-12-29T09:08:41;14.10;99.90
20985;DHT22;10651;47.552;7.606;2022-12-29T09:11:13;14.00;99.90
20985;DHT22;10651;47.552;7.606;2022-12-29T09:13:39;14.00;99.90
20985;DHT22;10651;47.552;7.606;2022-12-29T09:16:05;14.00;99.90
20985;DHT22;10651;47.552;7.606;2022-12-29T09:18:31;14.10;99.90
20985;DHT22;10651;47.552;7.606;2022-12-29T09:21:02;14.10;99.90
20985;DHT22;10651;47.552;7.606;2022-12-29T09:23:29;14.10;99.90
20985;DHT22;10651;47.552;7.606;2022-12-29T09:25:54;14.10;99.90
20985;DHT22;10651;47.552;7.606;2022-12-29T09:28:21;14.10;99.90
20985;DHT22;10651;47.552;7.606;2022-12-29T09:30:47;14.10;99.90
20985;DHT22;10651;47.552;7.606;2022-12-29T09:33:13;14.00;99.90
20985;DHT22;10651;47.552;7.606;2022-12-29T09:35:50;14.00;99.90
20985;DHT22;10651;47.552;7.606;2022-12-29T09:38:16;14.00;99.90
20985;DHT22;10651;47.552;7.606;2022-12-29T09:40:44;14.10;99.90
20985;DHT22;10651;47.552;7.606;2022-12-29T09:46:14;14.20;99.90
20985;DHT22;10651;47.552;7.606;2022-12-29T09:48:48;14.20;99.90
20985;DHT22;10651;47.552;7.606;2022-12-29T09:51:18;14.20;99.90
20985;DHT22;10651;47.552;7.606;2022-12-29T09:53:53;14.20;99.90
20985;DHT22;10651;47.552;7.606;2022-12-29T09:56:22;14.10;99.90
20985;DHT22;10651;47.552;7.606;2022-12-29T09:58:59;14.20;99.90
20985;DHT22;10651;47.552;7.606;2022-12-29T10:01:44;14.20;99.90
20985;DHT22;10651;47.552;7.606;2022-12-29T10:04:12;14.20;99.90
20985;DHT22;10651;47.552;7.606;2022-12-29T10:06:56;14.30;99.90
20985;DHT22;10651;47.552;7.606;2022-12-29T10:09:33;14.40;99.90
20985;DHT22;10651;47.552;7.606;2022-12-29T10:25:57;14.40;99.90
20985;DHT22;10651;47.552;7.606;2022-12-29T10:30:58;14.50;99.90
20985;DHT22;10651;47.552;7.606;2022-12-29T10:33:37;14.50;99.90
20985;DHT22;10651;47.552;7.606;2022-12-29T10:36:34;14.50;99.90
20985;DHT22;10651;47.552;7.606;2022-12-29T10:39:18;14.60;99.90
20985;DHT22;10651;47.552;7.606;2022-12-29T10:41:53;14.70;99.90
20985;DHT22;10651;47.552;7.606;2022-12-29T10:44:21;14.80;99.90
20985;DHT22;10651;47.552;7.606;2022-12-29T10:46:59;14.80;99.90
20985;DHT22;10651;47.552;7.606;2022-12-29T10:49:28;14.80;99.90
20985;DHT22;10651;47.552;7.606;2022-12-29T10:51:59;14.80;99.90
20985;DHT22;10651;47.552;7.606;2022-12-29T10:57:01;14.60;99.90
20985;DHT22;10651;47.552;7.606;2022-12-29T10:59:35;14.60;99.90
20985;DHT22;10651;47.552;7.606;2022-12-29T11:07:04;15.00;99.90
20985;DHT22;10651;47.552;7.606;2022-12-29T11:09:34;15.50;99.90
20985;DHT22;10651;47.552;7.606;2022-12-29T11:14:46;16.10;99.90
20985;DHT22;10651;47.552;7.606;2022-12-29T11:17:16;15.80;99.90
20985;DHT22;10651;47.552;7.606;2022-12-29T11:19:43;15.30;99.90
20985;DHT22;10651;47.552;7.606;2022-12-29T11:22:22;15.00;99.90
20985;DHT22;10651;47.552;7.606;2022-12-29T11:24:50;15.00;99.90
20985;DHT22;10651;47.552;7.606;2022-12-29T11:27:22;14.90;99.90
20985;DHT22;10651;47.552;7.606;2022-12-29T11:29:49;14.80;99.90
20985;DHT22;10651;47.552;7.606;2022-12-29T11:32:20;14.80;99.90
20985;DHT22;10651;47.552;7.606;2022-12-29T11:34:46;14.70;99.90
20985;DHT22;10651;47.552;7.606;2022-12-29T11:37:18;14.60;99.90
20985;DHT22;10651;47.552;7.606;2022-12-29T11:40:04;14.80;99.90
20985;DHT22;10651;47.552;7.606;2022-12-29T11:42:40;15.10;99.90
20985;DHT22;10651;47.552;7.606;2022-12-29T11:45:27;15.30;99.90
20985;DHT22;10651;47.552;7.606;2022-12-29T11:48:06;15.90;99.90
20985;DHT22;10651;47.552;7.606;2022-12-29T11:50:35;16.20;99.90
20985;DHT22;10651;47.552;7.606;2022-12-29T11:58:29;16.50;99.90
20985;DHT22;10651;47.552;7.606;2022-12-29T12:01:41;16.30;99.90
20985;DHT22;10651;47.552;7.606;2022-12-29T12:04:11;16.50;99.90
20985;DHT22;10651;47.552;7.606;2022-12-29T12:09:32;17.20;99.90
20985;DHT22;10651;47.552;7.606;2022-12-29T12:11:59;16.90;99.90
20985;DHT22;10651;47.552;7.606;2022-12-29T12:14:42;16.40;99.90
20985;DHT22;10651;47.552;7.606;2022-12-29T12:17:15;16.00;99.90
20985;DHT22;10651;47.552;7.606;2022-12-29T12:19:53;16.00;99.90
20985;DHT22;10651;47.552;7.606;2022-12-29T12:24:53;15.90;99.90
20985;DHT22;10651;47.552;7.606;2022-12-29T12:27:51;15.90;99.90
20985;DHT22;10651;47.552;7.606;2022-12-29T12:30:20;16.20;99.90
20985;DHT22;10651;47.552;7.606;2022-12-29T12:32:58;16.20;99.90
20985;DHT22;10651;47.552;7.606;2022-12-29T12:35:32;16.10;99.90
20985;DHT22;10651;47.552;7.606;2022-12-29T12:43:41;15.50;99.90
20985;DHT22;10651;47.552;7.606;2022-12-29T12:46:19;15.40;99.90
20985;DHT22;10651;47.552;7.606;2022-12-29T13:05:47;15.40;99.90
20985;DHT22;10651;47.552;7.606;2022-12-29T13:10:59;15.30;99.90
20985;DHT22;10651;47.552;7.606;2022-12-29T13:19:14;15.30;99.90
20985;DHT22;10651;47.552;7.606;2022-12-29T13:26:59;15.10;99.90
20985;DHT22;10651;47.552;7.606;2022-12-29T13:29:43;15.10;99.90
20985;DHT22;10651;47.552;7.606;2022-12-29T13:35:31;14.90;99.90
20985;DHT22;10651;47.552;7.606;2022-12-29T13:38:07;14.80;99.90
20985;DHT22;10651;47.552;7.606;2022-12-29T13:40:40;14.80;99.90
20985;DHT22;10651;47.552;7.606;2022-12-29T13:43:10;14.80;99.90
20985;DHT22;10651;47.552;7.606;2022-12-29T13:45:40;14.80;99.90
20985;DHT22;10651;47.552;7.606;2022-12-29T13:48:16;14.80;99.90
20985;DHT22;10651;47.552;7.606;2022-12-29T13:50:59;14.80;99.90
20985;DHT22;10651;47.552;7.606;2022-12-29T13:59:33;14.80;99.90
20985;DHT22;10651;47.552;7.606;2022-12-29T14:05:29;14.80;99.90
20985;DHT22;10651;47.552;7.606;2022-12-29T14:08:04;14.80;99.90
20985;DHT22;10651;47.552;7.606;2022-12-29T14:10:52;14.80;99.90
20985;DHT22;10651;47.552;7.606;2022-12-29T14:13:22;14.70;99.90
20985;DHT22;10651;47.552;7.606;2022-12-29T14:15:57;14.70;99.90
20985;DHT22;10651;47.552;7.606;2022-12-29T14:18:28;14.70;99.90
20985;DHT22;10651;47.552;7.606;2022-12-29T14:23:43;14.60;99.90
20985;DHT22;10651;47.552;7.606;2022-12-29T14:26:13;14.60;99.90
20985;DHT22;10651;47.552;7.606;2022-12-29T14:28:48;14.60;99.90
20985;DHT22;10651;47.552;7.606;2022-12-29T14:33:40;14.40;99.90
20985;DHT22;10651;47.552;7.606;2022-12-29T14:36:20;14.30;99.90
20985;DHT22;10651;47.552;7.606;2022-12-29T14:38:47;14.30;99.90
20985;DHT22;10651;47.552;7.606;2022-12-29T14:41:32;14.40;99.90
20985;DHT22;10651;47.552;7.606;2022-12-29T14:44:19;14.40;99.90
20985;DHT22;10651;47.552;7.606;2022-12-29T14:49:27;14.30;99.90
20985;DHT22;10651;47.552;7.606;2022-12-29T14:52:04;14.20;99.90
20985;DHT22;10651;47.552;7.606;2022-12-29T14:57:01;14.00;99.90
20985;DHT22;10651;47.552;7.606;2022-12-29T14:59:28;14.00;99.90
20985;DHT22;10651;47.552;7.606;2022-12-29T15:01:55;13.90;99.90
20985;DHT22;10651;47.552;7.606;2022-12-29T15:04:25;14.00;99.90
20985;DHT22;10651;47.552;7.606;2022-12-29T15:06:52;13.90;99.90
20985;DHT22;10651;47.552;7.606;2022-12-29T15:09:32;13.90;99.90
20985;DHT22;10651;47.552;7.606;2022-12-29T15:14:59;14.00;99.90
20985;DHT22;10651;47.552;7.606;2022-12-29T15:17:26;14.00;99.90
20985;DHT22;10651;47.552;7.606;2022-12-29T15:22:20;14.00;99.90
20985;DHT22;10651;47.552;7.606;2022-12-29T15:24:46;13.90;99.90
20985;DHT22;10651;47.552;7.606;2022-12-29T15:27:18;13.90;99.90
20985;DHT22;10651;47.552;7.606;2022-12-29T15:29:46;13.90;99.90
20985;DHT22;10651;47.552;7.606;2022-12-29T15:32:26;13.90;99.90
20985;DHT22;10651;47.552;7.606;2022-12-29T15:34:54;13.90;99.90
20985;DHT22;10651;47.552;7.606;2022-12-29T15:37:26;13.90;99.90
20985;DHT22;10651;47.552;7.606;2022-12-29T15:39:54;13.90;99.90
20985;DHT22;10651;47.552;7.606;2022-12-29T15:45:05;13.90;99.90
20985;DHT22;10651;47.552;7.606;2022-12-29T15:47:34;13.90;99.90
20985;DHT22;10651;47.552;7.606;2022-12-29T15:50:04;13.90;99.90
20985;DHT22;10651;47.552;7.606;2022-12-29T15:52:32;13.80;99.90
20985;DHT22;10651;47.552;7.606;2022-12-29T15:54:59;13.80;99.90
20985;DHT22;10651;47.552;7.606;2022-12-29T15:57:28;13.80;99.90
20985;DHT22;10651;47.552;7.606;2022-12-29T15:59:55;13.80;99.90
20985;DHT22;10651;47.552;7.606;2022-12-29T16:02:26;13.80;99.90
20985;DHT22;10651;47.552;7.606;2022-12-29T16:04:53;13.80;99.90
20985;DHT22;10651;47.552;7.606;2022-12-29T16:07:30;13.80;99.90
20985;DHT22;10651;47.552;7.606;2022-12-29T16:09:59;13.80;99.90
20985;DHT22;10651;47.552;7.606;2022-12-29T16:12:34;13.80;99.90
20985;DHT22;10651;47.552;7.606;2022-12-29T16:15:11;13.90;99.90
20985;DHT22;10651;47.552;7.606;2022-12-29T16:17:48;14.00;99.90
20985;DHT22;10651;47.552;7.606;2022-12-29T16:22:57;13.80;99.90
20985;DHT22;10651;47.552;7.606;2022-12-29T16:25:32;13.80;99.90
20985;DHT22;10651;47.552;7.606;2022-12-29T16:31:04;13.80;99.90
20985;DHT22;10651;47.552;7.606;2022-12-29T16:33:52;13.80;99.90
20985;DHT22;10651;47.552;7.606;2022-12-29T16:36:26;13.80;99.90
20985;DHT22;10651;47.552;7.606;2022-12-29T16:39:49;13.70;99.90
20985;DHT22;10651;47.552;7.606;2022-12-29T16:41:52;13.70;99.90
20985;DHT22;10651;47.552;7.606;2022-12-29T16:44:23;13.70;99.90
20985;DHT22;10651;47.552;7.606;2022-12-29T16:49:45;13.70;99.90
20985;DHT22;10651;47.552;7.606;2022-12-29T16:52:29;13.70;99.90
20985;DHT22;10651;47.552;7.606;2022-12-29T16:55:01;13.60;99.90
20985;DHT22;10651;47.552;7.606;2022-12-29T16:57:33;13.60;99.90
20985;DHT22;10651;47.552;7.606;2022-12-29T17:00:05;13.60;99.90
20985;DHT22;10651;47.552;7.606;2022-12-29T17:02:32;13.60;99.90
20985;DHT22;10651;47.552;7.606;2022-12-29T17:04:59;13.60;99.90
20985;DHT22;10651;47.552;7.606;2022-12-29T17:07:26;13.60;99.90
20985;DHT22;10651;47.552;7.606;2022-12-29T17:09:53;13.60;99.90
20985;DHT22;10651;47.552;7.606;2022-12-29T17:12:28;13.60;99.90
20985;DHT22;10651;47.552;7.606;2022-12-29T17:17:45;13.70;99.90
20985;DHT22;10651;47.552;7.606;2022-12-29T17:22:43;13.60;99.90
20985;DHT22;10651;47.552;7.606;2022-12-29T17:25:14;13.60;99.90
20985;DHT22;10651;47.552;7.606;2022-12-29T17:30:18;13.60;99.90
20985;DHT22;10651;47.552;7.606;2022-12-29T17:32:51;13.50;99.90
20985;DHT22;10651;47.552;7.606;2022-12-29T17:35:19;13.50;99.90
20985;DHT22;10651;47.552;7.606;2022-12-29T17:37:45;13.60;99.90
20985;DHT22;10651;47.552;7.606;2022-12-29T17:40:23;13.50;99.90
20985;DHT22;10651;47.552;7.606;2022-12-29T17:42:52;13.50;99.90
20985;DHT22;10651;47.552;7.606;2022-12-29T17:45:21;13.60;99.90
20985;DHT22;10651;47.552;7.606;2022-12-29T17:47:48;13.60;99.90
20985;DHT22;10651;47.552;7.606;2022-12-29T17:50:19;13.50;99.90
20985;DHT22;10651;47.552;7.606;2022-12-29T17:52:52;13.50;99.90
20985;DHT22;10651;47.552;7.606;2022-12-29T17:55:20;13.50;99.90
20985;DHT22;10651;47.552;7.606;2022-12-29T17:57:46;13.50;99.90
20985;DHT22;10651;47.552;7.606;2022-12-29T18:00:26;13.50;99.90
20985;DHT22;10651;47.552;7.606;2022-12-29T18:02:56;13.50;99.90
20985;DHT22;10651;47.552;7.606;2022-12-29T18:05:27;13.50;99.90
20985;DHT22;10651;47.552;7.606;2022-12-29T18:07:56;13.40;99.90
20985;DHT22;10651;47.552;7.606;2022-12-29T18:10:23;13.40;99.90
20985;DHT22;10651;47.552;7.606;2022-12-29T18:12:51;13.40;99.90
20985;DHT22;10651;47.552;7.606;2022-12-29T18:15:30;13.40;99.90
20985;DHT22;10651;47.552;7.606;2022-12-29T18:18:10;13.40;99.90
20985;DHT22;10651;47.552;7.606;2022-12-29T18:20:38;13.40;99.90
20985;DHT22;10651;47.552;7.606;2022-12-29T18:23:03;13.40;99.90
20985;DHT22;10651;47.552;7.606;2022-12-29T18:25:42;13.40;99.90
20985;DHT22;10651;47.552;7.606;2022-12-29T18:28:10;13.30;99.90
20985;DHT22;10651;47.552;7.606;2022-12-29T18:30:36;13.70;99.90
20985;DHT22;10651;47.552;7.606;2022-12-29T18:33:02;13.90;99.90
20985;DHT22;10651;47.552;7.606;2022-12-29T18:35:52;13.90;99.90
20985;DHT22;10651;47.552;7.606;2022-12-29T18:38:19;13.70;99.90
20985;DHT22;10651;47.552;7.606;2022-12-29T18:40:47;13.60;99.90
20985;DHT22;10651;47.552;7.606;2022-12-29T18:43:17;13.40;99.90
20985;DHT22;10651;47.552;7.606;2022-12-29T18:45:43;13.30;99.90
20985;DHT22;10651;47.552;7.606;2022-12-29T18:48:13;13.20;99.90
20985;DHT22;10651;47.552;7.606;2022-12-29T18:50:39;13.30;99.90
20985;DHT22;10651;47.552;7.606;2022-12-29T18:53:04;13.20;99.90
20985;DHT22;10651;47.552;7.606;2022-12-29T18:55:30;13.20;99.90
20985;DHT22;10651;47.552;7.606;2022-12-29T18:57:56;13.20;99.90
20985;DHT22;10651;47.552;7.606;2022-12-29T19:00:22;13.20;99.90
20985;DHT22;10651;47.552;7.606;2022-12-29T19:02:50;13.20;99.90
20985;DHT22;10651;47.552;7.606;2022-12-29T19:05:35;13.10;99.90
20985;DHT22;10651;47.552;7.606;2022-12-29T19:08:01;13.10;99.90
20985;DHT22;10651;47.552;7.606;2022-12-29T19:10:26;13.00;99.90
20985;DHT22;10651;47.552;7.606;2022-12-29T19:12:52;13.10;99.90
20985;DHT22;10651;47.552;7.606;2022-12-29T19:15:23;13.00;99.90
20985;DHT22;10651;47.552;7.606;2022-12-29T19:17:50;13.00;99.90
20985;DHT22;10651;47.552;7.606;2022-12-29T19:20:26;13.00;99.90
20985;DHT22;10651;47.552;7.606;2022-12-29T19:22:53;12.90;99.90
20985;DHT22;10651;47.552;7.606;2022-12-29T19:25:19;12.90;99.90
20985;DHT22;10651;47.552;7.606;2022-12-29T19:27:48;12.90;99.90
20985;DHT22;10651;47.552;7.606;2022-12-29T19:30:14;13.00;99.90
20985;DHT22;10651;47.552;7.606;2022-12-29T19:32:41;12.90;99.90
20985;DHT22;10651;47.552;7.606;2022-12-29T19:35:08;12.90;99.90
20985;DHT22;10651;47.552;7.606;2022-12-29T19:37:34;12.90;99.90
20985;DHT22;10651;47.552;7.606;2022-12-29T19:40:07;12.90;99.90
20985;DHT22;10651;47.552;7.606;2022-12-29T19:42:34;12.90;99.90
20985;DHT22;10651;47.552;7.606;2022-12-29T19:45:01;12.80;99.90
20985;DHT22;10651;47.552;7.606;2022-12-29T19:47:27;12.80;99.90
20985;DHT22;10651;47.552;7.606;2022-12-29T19:49:53;12.80;99.90
20985;DHT22;10651;47.552;7.606;2022-12-29T19:52:19;12.80;99.90
20985;DHT22;10651;47.552;7.606;2022-12-29T19:54:44;12.80;99.90
20985;DHT22;10651;47.552;7.606;2022-12-29T19:57:10;12.80;99.90
20985;DHT22;10651;47.552;7.606;2022-12-29T19:59:35;12.80;99.90
20985;DHT22;10651;47.552;7.606;2022-12-29T20:04:28;12.60;99.90
20985;DHT22;10651;47.552;7.606;2022-12-29T20:06:53;12.50;99.90
20985;DHT22;10651;47.552;7.606;2022-12-29T20:09:19;12.50;99.90
20985;DHT22;10651;47.552;7.606;2022-12-29T20:11:45;12.50;99.90
20985;DHT22;10651;47.552;7.606;2022-12-29T20:14:10;12.50;99.90
20985;DHT22;10651;47.552;7.606;2022-12-29T20:16:36;12.50;99.90
20985;DHT22;10651;47.552;7.606;2022-12-29T20:19:02;12.40;99.90
20985;DHT22;10651;47.552;7.606;2022-12-29T20:21:28;12.40;99.90
20985;DHT22;10651;47.552;7.606;2022-12-29T20:23:58;12.40;99.90
20985;DHT22;10651;47.552;7.606;2022-12-29T20:26:27;12.40;99.90
20985;DHT22;10651;47.552;7.606;2022-12-29T20:28:54;12.30;99.90
20985;DHT22;10651;47.552;7.606;2022-12-29T20:31:26;12.20;99.90
20985;DHT22;10651;47.552;7.606;2022-12-29T20:33:52;12.40;99.90
20985;DHT22;10651;47.552;7.606;2022-12-29T20:36:25;12.50;99.90
20985;DHT22;10651;47.552;7.606;2022-12-29T20:38:52;12.40;99.90
20985;DHT22;10651;47.552;7.606;2022-12-29T20:41:19;12.30;99.90
20985;DHT22;10651;47.552;7.606;2022-12-29T20:43:45;12.30;99.90
20985;DHT22;10651;47.552;7.606;2022-12-29T20:46:11;12.20;99.90
20985;DHT22;10651;47.552;7.606;2022-12-29T20:48:39;12.20;99.90
20985;DHT22;10651;47.552;7.606;2022-12-29T20:51:05;12.20;99.90
20985;DHT22;10651;47.552;7.606;2022-12-29T20:53:35;12.20;99.90
20985;DHT22;10651;47.552;7.606;2022-12-29T20:56:17;12.10;99.90
20985;DHT22;10651;47.552;7.606;2022-12-29T20:58:44;12.20;99.90
20985;DHT22;10651;47.552;7.606;2022-12-29T21:04:24;12.10;99.90
20985;DHT22;10651;47.552;7.606;2022-12-29T21:06:54;12.10;99.90
20985;DHT22;10651;47.552;7.606;2022-12-29T21:09:25;12.10;99.90
20985;DHT22;10651;47.552;7.606;2022-12-29T21:11:55;12.00;99.90
20985;DHT22;10651;47.552;7.606;2022-12-29T21:14:36;11.90;99.90
20985;DHT22;10651;47.552;7.606;2022-12-29T21:17:05;12.00;99.90
20985;DHT22;10651;47.552;7.606;2022-12-29T21:19:40;12.00;99.90
20985;DHT22;10651;47.552;7.606;2022-12-29T21:22:05;11.90;99.90
20985;DHT22;10651;47.552;7.606;2022-12-29T21:24:34;11.90;99.90
20985;DHT22;10651;47.552;7.606;2022-12-29T21:27:05;12.00;99.90
20985;DHT22;10651;47.552;7.606;2022-12-29T21:29:33;11.90;99.90
20985;DHT22;10651;47.552;7.606;2022-12-29T21:31:59;11.80;99.90
20985;DHT22;10651;47.552;7.606;2022-12-29T21:34:28;11.80;99.90
20985;DHT22;10651;47.552;7.606;2022-12-29T21:36:54;11.80;99.90
20985;DHT22;10651;47.552;7.606;2022-12-29T21:39:23;11.70;99.90
20985;DHT22;10651;47.552;7.606;2022-12-29T21:41:49;11.50;99.90
20985;DHT22;10651;47.552;7.606;2022-12-29T21:44:14;11.50;99.90
20985;DHT22;10651;47.552;7.606;2022-12-29T21:46:59;11.40;99.90
20985;DHT22;10651;47.552;7.606;2022-12-29T21:49:24;11.30;99.90
20985;DHT22;10651;47.552;7.606;2022-12-29T21:51:52;11.20;99.90
20985;DHT22;10651;47.552;7.606;2022-12-29T21:54:26;11.20;99.90
20985;DHT22;10651;47.552;7.606;2022-12-29T21:57:12;11.20;99.90
20985;DHT22;10651;47.552;7.606;2022-12-29T21:59:58;11.10;99.90
20985;DHT22;10651;47.552;7.606;2022-12-29T22:02:45;11.00;99.90
20985;DHT22;10651;47.552;7.606;2022-12-29T22:05:35;11.10;99.90
20985;DHT22;10651;47.552;7.606;2022-12-29T22:08:23;11.10;99.90
20985;DHT22;10651;47.552;7.606;2022-12-29T22:11:10;11.00;99.90
20985;DHT22;10651;47.552;7.606;2022-12-29T22:13:54;11.00;99.90
20985;DHT22;10651;47.552;7.606;2022-12-29T22:16:28;11.00;99.90
20985;DHT22;10651;47.552;7.606;2022-12-29T22:18:54;11.00;99.90
20985;DHT22;10651;47.552;7.606;2022-12-29T22:21:20;11.10;99.90
20985;DHT22;10651;47.552;7.606;2022-12-29T22:23:46;11.10;99.90
20985;DHT22;10651;47.552;7.606;2022-12-29T22:26:13;11.10;99.90
20985;DHT22;10651;47.552;7.606;2022-12-29T22:28:46;11.00;99.90
20985;DHT22;10651;47.552;7.606;2022-12-29T22:31:39;11.00;99.90
20985;DHT22;10651;47.552;7.606;2022-12-29T22:34:05;11.00;99.90
20985;DHT22;10651;47.552;7.606;2022-12-29T22:36:39;11.00;99.90
20985;DHT22;10651;47.552;7.606;2022-12-29T22:39:04;10.90;99.90
20985;DHT22;10651;47.552;7.606;2022-12-29T22:41:30;10.90;99.90
20985;DHT22;10651;47.552;7.606;2022-12-29T22:43:56;10.90;99.90
20985;DHT22;10651;47.552;7.606;2022-12-29T22:46:22;10.90;99.90
20985;DHT22;10651;47.552;7.606;2022-12-29T22:48:57;10.90;99.90
20985;DHT22;10651;47.552;7.606;2022-12-29T22:51:23;10.80;99.90
20985;DHT22;10651;47.552;7.606;2022-12-29T22:53:51;10.80;99.90
20985;DHT22;10651;47.552;7.606;2022-12-29T22:56:18;10.70;99.90